createdAt,value
2023-05-03T00:03:31.868Z,6.83
2023-05-03T00:07:37.405Z,6.72
2023-05-03T00:11:38.858Z,6.64
2023-05-03T00:15:40.249Z,6.53
2023-05-03T00:19:41.600Z,6.56
2023-05-03T00:23:44.316Z,6.64
2023-05-03T00:27:45.688Z,6.69
2023-05-03T00:31:47.032Z,6.53
2023-05-03T00:35:48.400Z,6.43
2023-05-03T00:39:51.603Z,6.62
2023-05-03T00:43:52.954Z,6.55
2023-05-03T00:47:54.358Z,6.59
2023-05-03T00:51:55.778Z,6.42
2023-05-03T00:55:59.161Z,6.41
2023-05-03T01:00:00.885Z,6.35
2023-05-03T01:04:03.098Z,6.47
2023-05-03T01:08:09.100Z,6.39
2023-05-03T01:12:24.138Z,6.28
2023-05-03T01:16:27.341Z,6.18
2023-05-03T01:20:30.245Z,6.20
2023-05-03T01:24:32.057Z,6.27
2023-05-03T01:28:34.802Z,6.44
2023-05-03T01:32:43.868Z,6.42
2023-05-03T01:36:45.614Z,6.59
2023-05-03T01:40:48.611Z,6.76
2023-05-03T01:44:53.130Z,6.71
2023-05-03T01:48:54.496Z,6.67
2023-05-03T01:52:55.842Z,6.73
2023-05-03T01:56:57.209Z,6.73
2023-05-03T02:00:59.972Z,6.69
2023-05-03T02:05:01.448Z,6.82
2023-05-03T02:09:02.875Z,6.72
2023-05-03T02:13:04.224Z,6.75
2023-05-03T02:17:07.012Z,6.87
2023-05-03T02:21:08.598Z,6.82
2023-05-03T02:25:09.926Z,6.69
2023-05-03T02:29:11.273Z,6.56
2023-05-03T02:33:13.992Z,6.55
2023-05-03T02:37:15.406Z,6.36
2023-05-03T02:41:16.760Z,6.36
2023-05-03T02:45:18.084Z,6.29
2023-05-03T02:49:20.841Z,6.35
2023-05-03T02:53:22.275Z,6.25
2023-05-03T02:57:23.642Z,6.17
2023-05-03T03:01:25.029Z,6.04
2023-05-03T03:05:27.748Z,6.00
2023-05-03T03:09:29.140Z,5.92
2023-05-03T03:13:30.638Z,5.92
2023-05-03T03:17:32.011Z,5.74
2023-05-03T03:21:34.823Z,5.70
2023-05-03T03:25:36.192Z,5.59
2023-05-03T03:29:37.572Z,5.55
2023-05-03T03:33:38.954Z,5.51
2023-05-03T03:37:41.669Z,5.52
2023-05-03T03:41:43.775Z,5.51
2023-05-03T03:45:45.128Z,5.51
2023-05-03T03:49:46.479Z,5.60
2023-05-03T03:53:49.213Z,5.62
2023-05-03T03:57:50.564Z,5.62
2023-05-03T04:01:52.008Z,5.77
2023-05-03T04:05:53.391Z,5.84
2023-05-03T04:09:56.102Z,5.87
2023-05-03T04:13:57.490Z,6.02
2023-05-03T04:17:58.973Z,6.06
2023-05-03T04:22:00.364Z,6.12
2023-05-03T04:26:04.858Z,6.15
2023-05-03T04:30:07.473Z,6.17
2023-05-03T04:34:08.840Z,6.31
2023-05-03T04:38:10.309Z,6.55
2023-05-03T04:42:13.057Z,6.63
2023-05-03T04:46:14.389Z,6.81
2023-05-03T04:50:15.853Z,6.94
2023-05-03T04:54:17.206Z,7.13
2023-05-03T04:58:19.960Z,7.38
2023-05-03T05:02:21.446Z,7.54
2023-05-03T05:06:22.988Z,7.75
2023-05-03T05:10:24.457Z,7.91
2023-05-03T05:14:27.468Z,8.06
2023-05-03T05:18:29.006Z,8.43
2023-05-03T05:22:30.474Z,8.77
2023-05-03T05:26:32.040Z,9.31
2023-05-03T05:30:34.760Z,10.88
2023-05-03T05:34:43.540Z,12.91
2023-05-03T05:38:46.998Z,14.33
2023-05-03T05:42:49.140Z,14.48
2023-05-03T05:46:52.087Z,13.70
2023-05-03T05:50:53.442Z,13.90
2023-05-03T05:54:55.109Z,14.78
2023-05-03T05:58:56.729Z,14.52
2023-05-03T06:02:59.560Z,14.14
2023-05-03T06:07:00.970Z,14.65
2023-05-03T06:11:02.466Z,15.08
2023-05-03T06:15:04.195Z,15.10
2023-05-03T06:19:06.950Z,15.65
2023-05-03T06:23:08.695Z,15.59
2023-05-03T06:27:10.068Z,14.66
2023-05-03T06:31:11.836Z,15.31
2023-05-03T06:35:14.752Z,17.19
2023-05-03T06:39:16.330Z,19.72
2023-05-03T06:43:17.715Z,21.79
2023-05-03T06:47:19.122Z,22.79
2023-05-03T06:51:21.830Z,20.87
2023-05-03T06:55:23.191Z,20.13
2023-05-03T06:59:24.580Z,19.81
2023-05-03T07:03:26.030Z,19.75
2023-05-03T07:07:28.766Z,18.99
2023-05-03T07:11:30.190Z,17.81
2023-05-03T07:15:31.569Z,17.59
2023-05-03T07:19:32.949Z,17.63
2023-05-03T07:23:35.667Z,17.70
2023-05-03T07:27:37.012Z,17.75
2023-05-03T07:31:38.470Z,17.37
2023-05-03T07:35:39.893Z,16.57
2023-05-03T07:39:42.910Z,15.96
2023-05-03T07:43:45.671Z,16.08
2023-05-03T07:47:47.057Z,16.33
2023-05-03T07:51:48.499Z,16.17
2023-05-03T07:55:54.421Z,16.48
2023-05-03T07:59:55.806Z,16.16
2023-05-03T08:03:57.408Z,15.84
2023-05-03T08:07:58.855Z,16.39
2023-05-03T08:12:01.578Z,16.52
2023-05-03T08:16:03.109Z,16.78
2023-05-03T08:20:05.334Z,17.06
2023-05-03T08:24:07.048Z,17.59
2023-05-03T08:28:09.768Z,17.99
2023-05-03T08:32:11.139Z,18.05
2023-05-03T08:36:12.578Z,17.91
2023-05-03T08:40:14.000Z,17.10
2023-05-03T08:44:20.340Z,17.01
2023-05-03T08:48:22.177Z,16.94
2023-05-03T08:52:23.559Z,16.75
2023-05-03T08:56:28.763Z,17.39
2023-05-03T09:00:31.574Z,17.24
2023-05-03T09:04:33.420Z,17.29
2023-05-03T09:08:42.481Z,17.87
2023-05-03T09:12:43.904Z,18.50
2023-05-03T09:16:46.836Z,18.84
2023-05-03T09:20:48.826Z,18.43
2023-05-03T09:24:53.490Z,18.27
2023-05-03T09:28:54.920Z,17.88
2023-05-03T09:32:57.648Z,18.02
2023-05-03T09:36:59.115Z,18.45
2023-05-03T09:41:00.885Z,18.43
2023-05-03T09:45:02.629Z,17.87
2023-05-03T09:49:05.539Z,17.91
2023-05-03T09:53:07.348Z,17.87
2023-05-03T09:57:09.191Z,17.92
2023-05-03T10:01:10.817Z,17.84
2023-05-03T10:05:14.534Z,17.57
2023-05-03T10:09:18.848Z,17.64
2023-05-03T10:13:21.571Z,17.53
2023-05-03T10:17:35.312Z,17.67
2023-05-03T10:21:54.173Z,17.81
2023-05-03T10:26:14.434Z,17.75
2023-05-03T10:30:26.881Z,18.00
2023-05-03T10:34:31.139Z,18.12
2023-05-03T10:38:33.888Z,17.83
2023-05-03T10:42:36.371Z,17.52
2023-05-03T10:46:37.906Z,17.25
2023-05-03T10:50:39.681Z,17.47
2023-05-03T10:54:42.408Z,17.32
2023-05-03T10:58:45.125Z,17.47
2023-05-03T11:03:02.745Z,17.71
2023-05-03T11:07:04.194Z,17.79
2023-05-03T11:11:06.930Z,17.92
2023-05-03T11:15:08.892Z,18.51
2023-05-03T11:19:10.539Z,18.90
2023-05-03T11:23:12.303Z,18.78
2023-05-03T11:27:15.051Z,18.11
2023-05-03T11:31:16.587Z,18.00
2023-05-03T11:35:18.014Z,17.67
2023-05-03T11:39:21.014Z,17.48
2023-05-03T11:43:23.910Z,17.38
2023-05-03T11:47:25.541Z,17.44
2023-05-03T11:51:26.996Z,17.77
2023-05-03T11:55:28.413Z,18.26
2023-05-03T11:59:38.426Z,18.72
2023-05-03T12:03:39.976Z,18.48
2023-05-03T12:07:42.123Z,18.26
2023-05-03T12:11:45.313Z,17.97
2023-05-03T12:16:10.178Z,17.82
2023-05-03T12:20:51.209Z,17.74
2023-05-03T12:24:38.915Z,17.67
2023-05-03T12:28:41.035Z,17.73
2023-05-03T12:32:44.495Z,18.02
2023-05-03T12:36:48.818Z,18.45
2023-05-03T12:40:50.604Z,18.62
2023-05-03T12:44:53.636Z,18.81
2023-05-03T12:48:59.090Z,19.01
2023-05-03T12:53:02.933Z,19.09
2023-05-03T12:57:08.977Z,18.97
2023-05-03T13:05:28.850Z,19.18
2023-05-03T13:10:12.176Z,18.93
2023-05-03T13:13:57.660Z,18.92
2023-05-03T13:17:59.015Z,19.26
2023-05-03T13:22:01.775Z,19.37
2023-05-03T13:26:03.197Z,19.32
2023-05-03T13:30:05.143Z,19.25
2023-05-03T13:34:06.563Z,18.40
2023-05-03T13:38:09.281Z,18.35
2023-05-03T13:42:10.654Z,18.30
2023-05-03T13:46:12.058Z,18.37
2023-05-03T13:50:13.672Z,18.22
2023-05-03T13:54:16.403Z,18.45
2023-05-03T13:58:17.781Z,18.66
2023-05-03T14:02:19.174Z,18.85
2023-05-03T14:06:21.581Z,18.90
2023-05-03T14:10:24.382Z,18.69
2023-05-03T14:14:26.500Z,18.70
2023-05-03T14:18:27.886Z,18.75
2023-05-03T14:22:29.271Z,18.80
2023-05-03T14:26:31.997Z,18.77
2023-05-03T14:30:33.565Z,18.75
2023-05-03T14:34:36.663Z,19.19
2023-05-03T14:38:38.039Z,19.38
2023-05-03T14:42:40.754Z,19.48
2023-05-03T14:46:42.121Z,19.35
2023-05-03T14:50:47.537Z,19.48
2023-05-03T14:54:48.890Z,19.47
2023-05-03T14:58:51.602Z,19.42
2023-05-03T15:02:53.199Z,19.43
2023-05-03T15:06:54.794Z,19.59
2023-05-03T15:10:56.192Z,19.71
2023-05-03T15:14:59.021Z,19.71
2023-05-03T15:19:00.394Z,19.57
2023-05-03T15:23:02.466Z,19.04
2023-05-03T15:27:03.973Z,18.97
2023-05-03T15:31:06.795Z,19.07
2023-05-03T15:35:08.539Z,19.06
2023-05-03T15:39:09.920Z,18.81
2023-05-03T15:43:11.298Z,18.82
2023-05-03T15:47:14.116Z,18.96
2023-05-03T15:51:15.511Z,19.12
2023-05-03T15:55:18.111Z,19.14
2023-05-03T15:59:19.459Z,18.96
2023-05-03T16:03:22.205Z,18.82
2023-05-03T16:07:23.614Z,18.75
2023-05-03T16:11:25.001Z,18.66
2023-05-03T16:15:26.398Z,18.74
2023-05-03T16:19:29.437Z,18.56
2023-05-03T16:23:30.812Z,18.50
2023-05-03T16:27:32.178Z,18.48
2023-05-03T16:31:33.586Z,18.40
2023-05-03T16:35:36.498Z,18.19
2023-05-03T16:39:37.831Z,18.23
2023-05-03T16:43:39.182Z,18.31
2023-05-03T16:47:40.563Z,18.36
2023-05-03T16:51:43.301Z,18.30
2023-05-03T16:55:44.662Z,18.31
2023-05-03T16:59:46.025Z,18.30
2023-05-03T17:03:47.423Z,18.25
2023-05-03T17:07:50.184Z,18.24
2023-05-03T17:11:51.542Z,18.38
2023-05-03T17:15:52.894Z,18.48
2023-05-03T17:19:54.222Z,19.14
2023-05-03T17:23:58.008Z,19.51
2023-05-03T17:27:59.401Z,19.45
2023-05-03T17:32:01.046Z,18.72
2023-05-03T17:36:03.198Z,18.23
2023-05-03T17:40:06.994Z,17.85
2023-05-03T17:44:08.472Z,17.27
2023-05-03T17:48:10.131Z,16.96
2023-05-03T17:52:11.499Z,16.78
2023-05-03T17:56:14.826Z,16.48
2023-05-03T18:00:16.819Z,16.16
2023-05-03T18:04:18.175Z,15.86
2023-05-03T18:08:19.533Z,15.43
2023-05-03T18:12:22.255Z,15.14
2023-05-03T18:16:23.630Z,14.86
2023-05-03T18:20:24.986Z,14.56
2023-05-03T18:24:26.322Z,14.26
2023-05-03T18:28:29.712Z,13.93
2023-05-03T18:32:31.214Z,13.37
2023-05-03T18:36:32.589Z,13.14
2023-05-03T18:40:33.911Z,12.96
2023-05-03T18:44:36.638Z,12.83
2023-05-03T18:48:38.015Z,12.68
2023-05-03T18:52:39.364Z,12.48
2023-05-03T18:56:40.697Z,12.30
2023-05-03T19:00:43.415Z,12.13
2023-05-03T19:04:44.874Z,11.74
2023-05-03T19:08:46.275Z,11.71
2023-05-03T19:12:48.180Z,11.44
2023-05-03T19:16:50.989Z,11.19
2023-05-03T19:20:52.355Z,11.10
2023-05-03T19:24:53.711Z,10.97
2023-05-03T19:28:55.063Z,10.91
2023-05-03T19:32:57.793Z,10.63
2023-05-03T19:36:59.141Z,10.27
2023-05-03T19:41:00.969Z,10.09
2023-05-03T19:45:02.695Z,10.08
2023-05-03T19:49:05.412Z,10.02
2023-05-03T19:53:06.774Z,9.87
2023-05-03T19:57:08.154Z,9.71
2023-05-03T20:01:09.522Z,9.49
2023-05-03T20:05:12.240Z,9.40
2023-05-03T20:09:13.638Z,9.30
2023-05-03T20:13:15.067Z,9.39
2023-05-03T20:17:16.476Z,9.27
2023-05-03T20:21:19.208Z,9.09
2023-05-03T20:25:20.623Z,8.89
2023-05-03T20:29:21.993Z,8.85
2023-05-03T20:33:23.345Z,8.78
2023-05-03T20:37:26.051Z,8.86
2023-05-03T20:41:27.475Z,8.70
2023-05-03T20:45:28.896Z,8.74
2023-05-03T20:49:30.283Z,8.81
2023-05-03T20:53:33.003Z,8.75
2023-05-03T20:57:34.369Z,8.89
2023-05-03T21:01:38.067Z,8.90
2023-05-03T21:05:39.481Z,8.90
2023-05-03T21:09:42.180Z,8.91
2023-05-03T21:13:43.543Z,8.95
2023-05-03T21:17:44.930Z,8.96
2023-05-03T21:21:46.294Z,8.96
2023-05-03T21:25:49.019Z,9.01
2023-05-03T21:29:50.347Z,8.92
2023-05-03T21:33:51.688Z,8.89
2023-05-03T21:37:53.049Z,8.82
2023-05-03T21:41:55.761Z,8.65
2023-05-03T21:45:57.206Z,8.67
2023-05-03T21:49:58.579Z,8.36
2023-05-03T21:54:00.052Z,8.50
2023-05-03T21:58:02.772Z,8.24
2023-05-03T22:02:04.354Z,8.29
2023-05-03T22:06:07.181Z,8.25
2023-05-03T22:10:08.817Z,8.20
2023-05-03T22:14:11.518Z,8.11
2023-05-03T22:18:12.912Z,7.93
2023-05-03T22:22:14.283Z,7.92
2023-05-03T22:26:15.613Z,7.80
2023-05-03T22:30:18.895Z,7.80
2023-05-03T22:34:20.392Z,7.68
2023-05-03T22:38:21.751Z,7.71
2023-05-03T22:42:23.115Z,7.48
2023-05-03T22:46:26.015Z,7.48
2023-05-03T22:50:27.483Z,7.41
2023-05-03T22:54:28.829Z,7.37
2023-05-03T22:58:30.363Z,7.21
2023-05-03T23:02:33.124Z,7.27
2023-05-03T23:06:34.495Z,7.06
2023-05-03T23:10:35.843Z,7.05
2023-05-03T23:14:37.180Z,6.77
2023-05-03T23:18:39.879Z,6.73
2023-05-03T23:22:41.275Z,6.72
2023-05-03T23:26:42.618Z,6.67
2023-05-03T23:30:44.811Z,6.62
2023-05-03T23:34:48.180Z,6.61
2023-05-03T23:38:49.629Z,6.60
2023-05-03T23:42:51.005Z,6.59
2023-05-03T23:46:52.363Z,6.70
2023-05-03T23:50:55.100Z,6.45
2023-05-03T23:54:56.456Z,6.34
2023-05-03T23:58:57.820Z,6.10
